Time;durP1;ratioP1;P1;durP2;ratioP2;P2;SDS_P1;SDS_P2;PMS_P1;PMS_P2;Temp;Humidity;BMP_temperature;BMP_pressure;BME280_temperature;BME280_humidity;BME280_pressure;Samples;Min_cycle;Max_cycle;Signal;HPM_P1;HPM_P2
2024/04/17 00:00:09;;;;;;;4.70;1.40;;;;;;;;;;5380117;26;20032;-80
2024/04/17 00:02:34;;;;;;;9.63;2.05;;;;;;;;;;5382620;26;20134;-80
2024/04/17 00:05:00;;;;;;;7.80;1.60;;;;;;;;;;5351102;26;20074;-80
2024/04/17 00:07:25;;;;;;;8.77;1.60;;;;;;;;;;5351184;26;19992;-79
2024/04/17 00:09:50;;;;;;;6.75;1.60;;;;;;;;;;5352763;26;20004;-80
2024/04/17 00:12:16;;;;;;;7.00;1.50;;;;;;;;;;5348039;26;20073;-80
2024/04/17 00:14:41;;;;;;;7.80;1.40;;;;;;;;;;5381492;26;20004;-80
2024/04/17 00:17:06;;;;;;;7.72;1.50;;;;;;;;;;5347862;26;20398;-80
2024/04/17 00:19:32;;;;;;;7.22;1.92;;;;;;;;;;5356135;26;20011;-80
2024/04/17 00:21:57;;;;;;;7.35;1.88;;;;;;;;;;5351779;26;19996;-80
2024/04/17 00:24:23;;;;;;;6.53;1.40;;;;;;;;;;5382707;26;20347;-80
2024/04/17 00:26:48;;;;;;;4.97;1.38;;;;;;;;;;5348161;26;19996;-80
2024/04/17 00:29:13;;;;;;;8.00;1.80;;;;;;;;;;5349852;26;20000;-80
2024/04/17 00:31:39;;;;;;;5.35;1.63;;;;;;;;;;5352020;26;20353;-80
2024/04/17 00:34:05;;;;;;;4.93;1.70;;;;;;;;;;5379925;26;20011;-80
2024/04/17 00:36:30;;;;;;;6.15;1.90;;;;;;;;;;5352181;26;19993;-80
2024/04/17 00:38:55;;;;;;;3.63;1.30;;;;;;;;;;5350360;26;20451;-80
2024/04/17 00:41:21;;;;;;;5.97;1.17;;;;;;;;;;5349852;26;20038;-79
2024/04/17 00:43:46;;;;;;;6.18;1.55;;;;;;;;;;5350450;26;20015;-80
2024/04/17 00:46:12;;;;;;;7.30;1.70;;;;;;;;;;5349935;26;20346;-80
2024/04/17 00:48:37;;;;;;;6.68;1.50;;;;;;;;;;5381059;26;20046;-80
2024/04/17 00:51:04;;;;;;;6.15;1.67;;;;;;;;;;5380298;26;20004;-80
2024/04/17 00:53:32;;;;;;;5.85;1.60;;;;;;;;;;5382191;26;20004;-80
2024/04/17 00:55:59;;;;;;;7.15;1.50;;;;;;;;;;5379091;26;20070;-80
2024/04/17 00:58:25;;;;;;;5.88;1.70;;;;;;;;;;5381827;26;20005;-80
2024/04/17 01:00:50;;;;;;;6.55;1.73;;;;;;;;;;5378217;26;20373;-82
2024/04/17 01:03:16;;;;;;;5.80;1.70;;;;;;;;;;5375521;21;20020;-86
2024/04/17 01:05:44;;;;;;;5.43;1.83;;;;;;;;;;5491986;26;20021;-84
2024/04/17 01:08:10;;;;;;;5.05;1.70;;;;;;;;;;5499196;26;19993;-85
2024/04/17 01:10:36;;;;;;;8.00;1.88;;;;;;;;;;5510848;26;20016;-85
2024/04/17 01:13:03;;;;;;;4.35;1.23;;;;;;;;;;5496388;26;20008;-85
2024/04/17 01:15:30;;;;;;;8.55;2.10;;;;;;;;;;5521599;26;20034;-84
2024/04/17 01:17:57;;;;;;;6.78;2.22;;;;;;;;;;5492122;26;20162;-85
2024/04/17 01:20:25;;;;;;;6.10;1.83;;;;;;;;;;5494248;26;20008;-85
2024/04/17 01:23:11;;;;;;;8.43;2.53;;;;;;;;;;5499546;26;20030;-84
2024/04/17 01:25:36;;;;;;;8.35;2.25;;;;;;;;;;5522641;26;19993;-84
2024/04/17 01:28:01;;;;;;;6.10;2.35;;;;;;;;;;5523346;26;20028;-84
2024/04/17 01:30:27;;;;;;;7.25;2.33;;;;;;;;;;5499240;26;20404;-85
2024/04/17 01:32:52;;;;;;;8.38;2.83;;;;;;;;;;5493819;26;19994;-85
2024/04/17 01:35:20;;;;;;;5.20;2.15;;;;;;;;;;5516652;25;19998;-84
2024/04/17 01:37:48;;;;;;;4.07;1.80;;;;;;;;;;5505462;26;20348;-84
2024/04/17 01:40:13;;;;;;;7.90;2.42;;;;;;;;;;5494881;26;20326;-85
2024/04/17 01:42:39;;;;;;;4.40;2.10;;;;;;;;;;5485561;26;20010;-85
2024/04/17 01:45:05;;;;;;;6.40;2.15;;;;;;;;;;5486264;26;20074;-84
2024/04/17 01:47:30;;;;;;;7.28;2.40;;;;;;;;;;5487213;26;20423;-85
2024/04/17 01:50:02;;;;;;;7.32;2.10;;;;;;;;;;5515959;26;20021;-85
2024/04/17 01:52:27;;;;;;;6.47;2.30;;;;;;;;;;5523294;26;20009;-86
2024/04/17 01:54:53;;;;;;;5.80;2.60;;;;;;;;;;5478175;26;20074;-85
2024/04/17 01:57:18;;;;;;;6.78;2.30;;;;;;;;;;5483932;26;20437;-86
2024/04/17 01:59:44;;;;;;;7.07;2.42;;;;;;;;;;5493897;26;20015;-85
2024/04/17 02:02:09;;;;;;;7.32;2.45;;;;;;;;;;5504153;26;20515;-87
2024/04/17 02:04:36;;;;;;;4.43;2.30;;;;;;;;;;5480476;26;20078;-86
2024/04/17 02:07:02;;;;;;;8.88;3.00;;;;;;;;;;5484878;26;20345;-87
2024/04/17 02:09:30;;;;;;;8.85;2.75;;;;;;;;;;5484800;26;20002;-86
2024/04/17 02:11:55;;;;;;;11.00;3.70;;;;;;;;;;5476997;26;20070;-81
2024/04/17 02:14:20;;;;;;;7.25;3.30;;;;;;;;;;5478488;26;20002;-82
2024/04/17 02:16:46;;;;;;;6.00;2.80;;;;;;;;;;5488566;26;20001;-80
2024/04/17 02:19:11;;;;;;;9.15;3.03;;;;;;;;;;5484749;26;20342;-81
2024/04/17 02:21:36;;;;;;;5.68;2.75;;;;;;;;;;5485500;26;19991;-80
2024/04/17 02:24:05;;;;;;;7.93;2.78;;;;;;;;;;5486171;26;19998;-80
2024/04/17 02:26:30;;;;;;;5.32;2.30;;;;;;;;;;5479577;26;19998;-81
2024/04/17 02:28:56;;;;;;;5.65;2.20;;;;;;;;;;5485395;26;20411;-82
2024/04/17 02:31:21;;;;;;;5.28;1.95;;;;;;;;;;5484346;26;20002;-80
2024/04/17 02:33:46;;;;;;;5.22;2.35;;;;;;;;;;5482496;26;20034;-80
2024/04/17 02:36:12;;;;;;;7.03;2.10;;;;;;;;;;5484113;26;20357;-80
2024/04/17 02:38:40;;;;;;;4.13;1.80;;;;;;;;;;5479449;26;19998;-80
2024/04/17 02:41:05;;;;;;;4.45;1.80;;;;;;;;;;5483780;26;19998;-80
2024/04/17 02:43:34;;;;;;;3.80;1.70;;;;;;;;;;5484695;26;20711;-81
2024/04/17 02:45:59;;;;;;;6.32;1.80;;;;;;;;;;5477031;26;19998;-80
2024/04/17 02:48:25;;;;;;;3.17;1.70;;;;;;;;;;5487156;26;20986;-80
2024/04/17 02:50:50;;;;;;;5.63;1.88;;;;;;;;;;5485912;26;20020;-80
2024/04/17 02:53:18;;;;;;;5.55;2.28;;;;;;;;;;5480835;26;20018;-80
2024/04/17 02:55:43;;;;;;;5.65;2.08;;;;;;;;;;5486264;26;20002;-80
2024/04/17 02:58:08;;;;;;;3.90;1.90;;;;;;;;;;5490305;26;19998;-81
2024/04/17 03:00:34;;;;;;;4.35;1.92;;;;;;;;;;5484318;26;19990;-80
2024/04/17 03:03:04;;;;;;;5.47;1.80;;;;;;;;;;5487954;26;20050;-80
2024/04/17 03:05:33;;;;;;;5.28;2.00;;;;;;;;;;5484791;26;20344;-82
2024/04/17 03:07:58;;;;;;;4.45;1.98;;;;;;;;;;5488655;26;19999;-81
2024/04/17 03:10:24;;;;;;;2.88;1.40;;;;;;;;;;5487524;26;20013;-81
2024/04/17 03:12:49;;;;;;;3.15;1.40;;;;;;;;;;5481460;26;20016;-81
2024/04/17 03:15:14;;;;;;;3.50;1.60;;;;;;;;;;5474200;26;20445;-81
2024/04/17 03:17:40;;;;;;;4.25;1.38;;;;;;;;;;5489160;26;20039;-83
2024/04/17 03:20:06;;;;;;;3.17;1.30;;;;;;;;;;5488703;26;20369;-81
2024/04/17 03:22:31;;;;;;;2.75;1.25;;;;;;;;;;5480619;26;19999;-88
2024/04/17 03:24:56;;;;;;;2.88;1.50;;;;;;;;;;5487665;26;20006;-87
2024/04/17 03:27:22;;;;;;;2.50;1.23;;;;;;;;;;5489247;26;19998;-88
2024/04/17 03:29:47;;;;;;;2.00;1.30;;;;;;;;;;5516652;26;20465;-87
2024/04/17 03:32:13;;;;;;;3.20;1.55;;;;;;;;;;5487610;26;20016;-88
2024/04/17 03:34:38;;;;;;;4.20;1.70;;;;;;;;;;5481373;26;19998;-87
2024/04/17 03:37:03;;;;;;;3.58;1.98;;;;;;;;;;5482350;26;19998;-88
2024/04/17 03:39:29;;;;;;;3.97;2.00;;;;;;;;;;5479890;26;20006;-88
2024/04/17 03:41:54;;;;;;;4.35;2.00;;;;;;;;;;5483192;26;19995;-87
2024/04/17 03:44:20;;;;;;;4.50;2.33;;;;;;;;;;5489464;26;20005;-87
2024/04/17 03:46:45;;;;;;;3.65;2.00;;;;;;;;;;5488354;26;20082;-88
2024/04/17 03:49:11;;;;;;;4.75;1.90;;;;;;;;;;5483703;26;20035;-87
2024/04/17 03:51:37;;;;;;;5.18;2.30;;;;;;;;;;5487967;26;20337;-87
2024/04/17 03:54:02;;;;;;;4.90;2.05;;;;;;;;;;5488304;26;19994;-87
2024/04/17 03:56:27;;;;;;;4.25;1.67;;;;;;;;;;5487401;26;20002;-88
2024/04/17 03:58:53;;;;;;;4.90;1.95;;;;;;;;;;5485437;26;19999;-88
2024/04/17 04:01:18;;;;;;;5.32;2.05;;;;;;;;;;5477783;26;19998;-87
2024/04/17 04:03:45;;;;;;;3.92;1.83;;;;;;;;;;5488520;26;20009;-88
2024/04/17 04:06:10;;;;;;;3.88;1.42;;;;;;;;;;5480101;26;20009;-88
2024/04/17 04:08:36;;;;;;;4.35;1.70;;;;;;;;;;5488930;26;20014;-89
2024/04/17 04:11:01;;;;;;;5.50;2.13;;;;;;;;;;5481905;26;20009;-88
2024/04/17 04:13:26;;;;;;;4.22;1.40;;;;;;;;;;5486424;26;20008;-88
2024/04/17 04:15:53;;;;;;;2.97;1.20;;;;;;;;;;5488329;26;20004;-88
2024/04/17 04:18:18;;;;;;;2.08;1.10;;;;;;;;;;5489427;26;20002;-89
2024/04/17 04:20:43;;;;;;;3.95;1.20;;;;;;;;;;5487487;26;20472;-89
2024/04/17 04:23:09;;;;;;;4.68;1.20;;;;;;;;;;5487809;26;20010;-89
2024/04/17 04:25:34;;;;;;;2.50;1.15;;;;;;;;;;5486196;26;20017;-89
2024/04/17 04:28:00;;;;;;;3.92;1.30;;;;;;;;;;5488124;26;20006;-88
2024/04/17 04:30:27;;;;;;;5.03;1.30;;;;;;;;;;5487725;26;20001;-88
2024/04/17 04:32:55;;;;;;;3.42;1.00;;;;;;;;;;5478095;26;20030;-88
2024/04/17 04:35:21;;;;;;;2.75;1.05;;;;;;;;;;5488763;26;19994;-88
2024/04/17 04:37:46;;;;;;;2.92;0.90;;;;;;;;;;5486184;26;20002;-88
2024/04/17 04:40:12;;;;;;;3.10;0.82;;;;;;;;;;5484603;26;20123;-89
2024/04/17 04:42:37;;;;;;;1.83;0.52;;;;;;;;;;5485149;26;20450;-82
2024/04/17 04:45:03;;;;;;;3.08;1.08;;;;;;;;;;5480814;26;19994;-82
2024/04/17 04:47:29;;;;;;;1.45;0.55;;;;;;;;;;5484514;26;20006;-82
2024/04/17 04:49:54;;;;;;;4.70;1.00;;;;;;;;;;5486816;26;19994;-82
2024/04/17 04:52:20;;;;;;;5.47;0.90;;;;;;;;;;5486086;26;20086;-82
2024/04/17 04:54:45;;;;;;;4.75;0.98;;;;;;;;;;5483161;26;20009;-83
2024/04/17 04:57:11;;;;;;;3.55;0.80;;;;;;;;;;5485371;26;20002;-82
2024/04/17 04:59:36;;;;;;;3.10;0.77;;;;;;;;;;5483922;26;20000;-82
2024/04/17 05:02:01;;;;;;;1.67;0.80;;;;;;;;;;5484763;26;20362;-82
2024/04/17 05:04:28;;;;;;;3.63;1.20;;;;;;;;;;5484573;26;20013;-82
2024/04/17 05:06:53;;;;;;;2.10;0.90;;;;;;;;;;5475448;26;20103;-83
2024/04/17 05:09:19;;;;;;;3.13;1.08;;;;;;;;;;5471805;26;20005;-82
2024/04/17 05:11:44;;;;;;;2.72;0.90;;;;;;;;;;5486133;26;20528;-83
2024/04/17 05:14:11;;;;;;;5.15;1.10;;;;;;;;;;5482620;26;20052;-84
2024/04/17 05:16:36;;;;;;;2.80;0.93;;;;;;;;;;5482937;26;20017;-82
2024/04/17 05:19:01;;;;;;;2.10;1.00;;;;;;;;;;5482436;26;19994;-84
2024/04/17 05:21:27;;;;;;;2.53;1.20;;;;;;;;;;5476609;26;20010;-82
2024/04/17 05:23:52;;;;;;;2.67;1.10;;;;;;;;;;5463651;26;20013;-82
2024/04/17 05:26:18;;;;;;;3.17;1.30;;;;;;;;;;5481163;26;20002;-84
2024/04/17 05:28:43;;;;;;;4.05;1.23;;;;;;;;;;5477468;26;20423;-83
2024/04/17 05:31:08;;;;;;;5.18;1.50;;;;;;;;;;5485541;26;20074;-82
2024/04/17 05:33:34;;;;;;;3.95;1.50;;;;;;;;;;5463263;26;20002;-82
2024/04/17 05:35:59;;;;;;;2.85;1.55;;;;;;;;;;5477017;26;20010;-82
2024/04/17 05:38:25;;;;;;;4.35;1.60;;;;;;;;;;5469467;26;20074;-82
2024/04/17 05:40:50;;;;;;;8.88;2.00;;;;;;;;;;5474389;26;20445;-82
2024/04/17 05:43:16;;;;;;;5.68;1.45;;;;;;;;;;5478864;26;19998;-83
2024/04/17 05:45:43;;;;;;;4.68;1.48;;;;;;;;;;5467935;26;20017;-82
2024/04/17 05:48:09;;;;;;;2.45;1.60;;;;;;;;;;5470824;26;20009;-82
2024/04/17 05:50:37;;;;;;;3.63;1.30;;;;;;;;;;5479255;26;20013;-84
2024/04/17 05:53:03;;;;;;;7.45;1.58;;;;;;;;;;5483160;26;20012;-87
2024/04/17 05:55:29;;;;;;;5.55;1.60;;;;;;;;;;5475585;26;20345;-87
2024/04/17 05:57:54;;;;;;;3.45;1.05;;;;;;;;;;5481815;26;20440;-87
2024/04/17 06:00:20;;;;;;;4.03;1.60;;;;;;;;;;5480605;26;20078;-88
2024/04/17 06:02:46;;;;;;;4.47;1.48;;;;;;;;;;5479676;26;20002;-87
2024/04/17 06:05:12;;;;;;;3.40;1.48;;;;;;;;;;5486620;26;20006;-87
2024/04/17 06:07:40;;;;;;;5.85;1.73;;;;;;;;;;5480630;26;20011;-87
2024/04/17 06:10:07;;;;;;;5.57;1.50;;;;;;;;;;5485506;26;20034;-87
2024/04/17 06:12:33;;;;;;;4.22;1.58;;;;;;;;;;5445570;26;20431;-88
2024/04/17 06:14:58;;;;;;;4.75;1.70;;;;;;;;;;5473203;26;20018;-89
2024/04/17 06:17:24;;;;;;;3.78;1.60;;;;;;;;;;5475940;26;20002;-89
2024/04/17 06:19:55;;;;;;;4.65;1.65;;;;;;;;;;5478090;26;20002;-89
2024/04/17 06:22:23;;;;;;;5.40;1.90;;;;;;;;;;5473225;26;20474;-85
2024/04/17 06:24:55;;;;;;;6.90;2.38;;;;;;;;;;5480960;26;20003;-86
2024/04/17 06:27:23;;;;;;;5.85;1.77;;;;;;;;;;5477006;26;20334;-86
2024/04/17 06:29:50;;;;;;;5.07;1.77;;;;;;;;;;5481107;26;20446;-86
2024/04/17 06:32:16;;;;;;;6.38;1.90;;;;;;;;;;5458222;26;20003;-86
2024/04/17 06:34:41;;;;;;;4.32;1.70;;;;;;;;;;5475653;26;20009;-86
2024/04/17 06:37:06;;;;;;;4.55;1.52;;;;;;;;;;5484764;26;20002;-87
2024/04/17 06:39:33;;;;;;;5.95;1.75;;;;;;;;;;5477635;26;20006;-86
2024/04/17 06:41:59;;;;;;;3.58;1.70;;;;;;;;;;5483904;26;20002;-86
2024/04/17 06:44:24;;;;;;;6.25;1.83;;;;;;;;;;5476248;26;20067;-86
2024/04/17 06:46:49;;;;;;;4.18;1.50;;;;;;;;;;5475591;26;20074;-86
2024/04/17 06:49:15;;;;;;;5.10;1.63;;;;;;;;;;5472620;26;20003;-86
2024/04/17 06:51:41;;;;;;;4.55;1.50;;;;;;;;;;5474442;26;20052;-86
2024/04/17 06:54:06;;;;;;;7.03;1.55;;;;;;;;;;5481147;26;19998;-86
2024/04/17 06:56:31;;;;;;;4.55;1.38;;;;;;;;;;5479514;26;20030;-86
2024/04/17 06:58:57;;;;;;;5.07;1.60;;;;;;;;;;5470313;26;19998;-86
2024/04/17 07:01:22;;;;;;;6.47;2.00;;;;;;;;;;5480097;26;20024;-86
2024/04/17 07:03:48;;;;;;;8.73;1.60;;;;;;;;;;5482319;26;20406;-82
2024/04/17 07:06:13;;;;;;;5.63;1.25;;;;;;;;;;5472597;26;19998;-82
2024/04/17 07:08:39;;;;;;;6.93;1.52;;;;;;;;;;5475542;26;20014;-83
2024/04/17 07:11:04;;;;;;;4.90;1.13;;;;;;;;;;5481128;26;19999;-83
2024/04/17 07:13:30;;;;;;;9.80;1.60;;;;;;;;;;5481961;26;20013;-86
2024/04/17 07:15:57;;;;;;;5.28;1.67;;;;;;;;;;5482731;26;20009;-87
2024/04/17 07:18:24;;;;;;;5.35;1.20;;;;;;;;;;5472095;26;20414;-87
2024/04/17 07:20:49;;;;;;;5.95;1.35;;;;;;;;;;5463633;26;20006;-87
2024/04/17 07:23:15;;;;;;;5.70;1.13;;;;;;;;;;5477722;26;20034;-86
2024/04/17 07:25:41;;;;;;;6.60;1.33;;;;;;;;;;5478429;26;19994;-86
2024/04/17 07:28:06;;;;;;;8.23;1.35;;;;;;;;;;5473246;26;20014;-86
2024/04/17 07:30:31;;;;;;;5.50;1.10;;;;;;;;;;5482279;26;20476;-86
2024/04/17 07:32:57;;;;;;;8.85;1.58;;;;;;;;;;5484868;26;20070;-86
2024/04/17 07:35:22;;;;;;;8.07;1.83;;;;;;;;;;5479626;26;20005;-86
2024/04/17 07:37:48;;;;;;;7.07;1.13;;;;;;;;;;5488210;26;20006;-86
2024/04/17 07:40:17;;;;;;;6.95;1.38;;;;;;;;;;5487713;26;19998;-86
2024/04/17 07:42:42;;;;;;;7.07;1.08;;;;;;;;;;5486757;26;19994;-86
2024/04/17 07:45:08;;;;;;;8.15;1.00;;;;;;;;;;5479833;26;20428;-86
2024/04/17 07:47:33;;;;;;;8.77;1.05;;;;;;;;;;5482646;26;20103;-86
2024/04/17 07:50:01;;;;;;;5.30;1.08;;;;;;;;;;5477388;26;20002;-86
2024/04/17 07:52:27;;;;;;;6.80;1.30;;;;;;;;;;5482366;26;20006;-86
2024/04/17 07:54:52;;;;;;;9.18;1.65;;;;;;;;;;5479336;26;20002;-85
2024/04/17 07:57:17;;;;;;;6.63;1.15;;;;;;;;;;5466213;26;19994;-84
2024/04/17 07:59:43;;;;;;;4.95;1.27;;;;;;;;;;5481469;26;20033;-83
2024/04/17 08:02:08;;;;;;;7.57;1.30;;;;;;;;;;5485149;26;20009;-82
2024/04/17 08:04:35;;;;;;;6.38;1.27;;;;;;;;;;5488113;26;19994;-86
2024/04/17 08:07:03;;;;;;;6.38;1.33;;;;;;;;;;5487572;26;20002;-86
2024/04/17 08:09:31;;;;;;;6.80;1.30;;;;;;;;;;5478140;26;20406;-82
2024/04/17 08:12:02;;;;;;;13.23;1.70;;;;;;;;;;5484044;26;20458;-89
2024/04/17 08:14:28;;;;;;;7.75;1.38;;;;;;;;;;5465656;26;20010;-86
2024/04/17 08:16:54;;;;;;;6.20;1.58;;;;;;;;;;5486508;26;19999;-86
2024/04/17 08:19:19;;;;;;;8.10;1.50;;;;;;;;;;5468294;26;20021;-86
2024/04/17 08:21:46;;;;;;;7.65;1.30;;;;;;;;;;5516556;25;20032;-86
2024/04/17 08:24:11;;;;;;;6.32;1.60;;;;;;;;;;5490389;26;20038;-86
2024/04/17 08:26:37;;;;;;;6.72;1.33;;;;;;;;;;5487666;26;19998;-85
2024/04/17 08:29:03;;;;;;;5.35;1.25;;;;;;;;;;5478906;26;20006;-85
2024/04/17 08:31:28;;;;;;;8.30;1.58;;;;;;;;;;5489435;26;19995;-89
2024/04/17 08:33:53;;;;;;;4.47;0.90;;;;;;;;;;5485026;26;20013;-87
2024/04/17 08:36:19;;;;;;;6.10;1.33;;;;;;;;;;5473379;26;20013;-89
2024/04/17 08:38:46;;;;;;;5.45;1.35;;;;;;;;;;5484507;26;19990;-89
2024/04/17 08:41:11;;;;;;;8.38;1.50;;;;;;;;;;5484714;26;19998;-89
2024/04/17 08:43:37;;;;;;;7.88;1.38;;;;;;;;;;5479043;26;19998;-88
2024/04/17 08:46:04;;;;;;;7.32;1.40;;;;;;;;;;5474192;26;20010;-89
2024/04/17 08:48:32;;;;;;;7.35;1.42;;;;;;;;;;5485966;26;20010;-89
2024/04/17 08:50:58;;;;;;;7.18;1.45;;;;;;;;;;5477708;26;19998;-88
2024/04/17 08:53:26;;;;;;;4.35;1.23;;;;;;;;;;5481324;26;20006;-89
2024/04/17 08:55:51;;;;;;;6.15;1.30;;;;;;;;;;5484695;26;19998;-89
2024/04/17 08:58:17;;;;;;;2.22;0.68;;;;;;;;;;5475031;26;20035;-88
2024/04/17 09:00:47;;;;;;;1.85;0.70;;;;;;;;;;5488722;26;20672;-88
2024/04/17 09:03:19;;;;;;;3.55;0.98;;;;;;;;;;5481623;26;19994;-88
2024/04/17 09:05:45;;;;;;;4.43;0.97;;;;;;;;;;5482666;26;20391;-89
2024/04/17 09:08:10;;;;;;;3.88;1.00;;;;;;;;;;5483841;26;20013;-90
2024/04/17 09:10:36;;;;;;;3.70;1.00;;;;;;;;;;5487754;26;20476;-89
2024/04/17 09:13:02;;;;;;;3.17;1.00;;;;;;;;;;5485497;26;20007;-88
2024/04/17 09:15:29;;;;;;;2.45;0.70;;;;;;;;;;5489757;26;20083;-89
2024/04/17 09:17:55;;;;;;;2.42;0.77;;;;;;;;;;5481478;26;19994;-88
2024/04/17 09:20:21;;;;;;;2.05;0.80;;;;;;;;;;5483317;26;20013;-89
2024/04/17 09:22:46;;;;;;;3.00;0.75;;;;;;;;;;5464525;26;19999;-82
2024/04/17 09:25:16;;;;;;;2.40;0.70;;;;;;;;;;5490075;26;19998;-86
2024/04/17 09:27:45;;;;;;;2.30;0.57;;;;;;;;;;5485604;26;20038;-85
2024/04/17 09:30:14;;;;;;;1.67;0.60;;;;;;;;;;5455240;26;20352;-86
2024/04/17 09:32:39;;;;;;;1.65;0.60;;;;;;;;;;5487138;26;20008;-87
2024/04/17 09:35:11;;;;;;;2.58;0.63;;;;;;;;;;5487699;26;19998;-87
2024/04/17 09:37:38;;;;;;;1.70;0.50;;;;;;;;;;5480293;26;19998;-86
2024/04/17 09:40:06;;;;;;;1.85;0.50;;;;;;;;;;5469944;26;20006;-86
2024/04/17 09:42:34;;;;;;;4.28;0.70;;;;;;;;;;5476644;26;20009;-86
2024/04/17 09:45:00;;;;;;;2.22;0.60;;;;;;;;;;5457057;26;20062;-86
2024/04/17 09:47:33;;;;;;;1.92;0.70;;;;;;;;;;5486279;26;20920;-87
2024/04/17 09:49:59;;;;;;;2.38;0.77;;;;;;;;;;5487798;26;20008;-86
2024/04/17 09:52:27;;;;;;;2.55;0.80;;;;;;;;;;5488163;26;19998;-86
2024/04/17 09:54:53;;;;;;;2.22;0.65;;;;;;;;;;5487401;26;20082;-86
2024/04/17 09:57:19;;;;;;;1.27;0.60;;;;;;;;;;5482810;26;20473;-86
2024/04/17 09:59:46;;;;;;;2.60;0.70;;;;;;;;;;5484818;26;20006;-85
2024/04/17 10:02:14;;;;;;;1.90;0.82;;;;;;;;;;5486323;26;19998;-86
2024/04/17 10:04:41;;;;;;;2.33;0.75;;;;;;;;;;5473753;26;20014;-86
2024/04/17 10:07:12;;;;;;;1.48;0.77;;;;;;;;;;5479511;26;19999;-86
2024/04/17 10:09:41;;;;;;;2.45;0.82;;;;;;;;;;5471420;26;20002;-86
2024/04/17 10:12:11;;;;;;;1.95;0.70;;;;;;;;;;5482046;26;20125;-83
2024/04/17 10:14:38;;;;;;;2.60;1.10;;;;;;;;;;5484483;26;19994;-83
2024/04/17 10:17:06;;;;;;;2.15;0.70;;;;;;;;;;5511680;26;20044;-83
2024/04/17 10:19:32;;;;;;;2.38;1.00;;;;;;;;;;5483460;26;19997;-82
2024/04/17 10:21:58;;;;;;;3.13;0.70;;;;;;;;;;5481307;26;19995;-85
2024/04/17 10:24:27;;;;;;;1.80;0.90;;;;;;;;;;5478336;26;20028;-83
2024/04/17 10:26:54;;;;;;;1.60;0.88;;;;;;;;;;5471110;26;21511;-82
2024/04/17 10:29:28;;;;;;;2.05;0.90;;;;;;;;;;5436126;26;19999;-82
2024/04/17 10:32:14;;;;;;;2.03;1.00;;;;;;;;;;5476037;26;20004;-83
2024/04/17 10:34:52;;;;;;;2.47;1.20;;;;;;;;;;5475310;26;20002;-89
2024/04/17 10:37:18;;;;;;;2.97;1.30;;;;;;;;;;5476238;26;20046;-87
2024/04/17 10:39:45;;;;;;;3.35;0.98;;;;;;;;;;5473795;26;20461;-89
2024/04/17 10:42:16;;;;;;;3.55;1.20;;;;;;;;;;5481388;26;20469;-89
2024/04/17 10:44:50;;;;;;;4.35;1.00;;;;;;;;;;5471644;26;20001;-89
2024/04/17 10:47:21;;;;;;;2.83;1.38;;;;;;;;;;5463822;26;20073;-88
2024/04/17 10:49:57;;;;;;;2.38;1.13;;;;;;;;;;5481620;26;20038;-89
2024/04/17 10:52:25;;;;;;;2.50;1.35;;;;;;;;;;5478609;26;19999;-89
2024/04/17 10:54:54;;;;;;;2.63;1.10;;;;;;;;;;5479719;26;20017;-88
2024/04/17 10:57:20;;;;;;;3.75;1.20;;;;;;;;;;5485706;26;20461;-88
2024/04/17 10:59:47;;;;;;;3.30;0.98;;;;;;;;;;5487272;26;19998;-87
2024/04/17 11:02:13;;;;;;;2.08;1.00;;;;;;;;;;5485677;26;20461;-88
2024/04/17 11:04:39;;;;;;;2.17;1.00;;;;;;;;;;5484570;26;20003;-86
2024/04/17 11:07:11;;;;;;;3.08;1.00;;;;;;;;;;5481679;26;20070;-84
2024/04/17 11:09:44;;;;;;;1.13;0.80;;;;;;;;;;5466910;26;20018;-84
2024/04/17 11:12:14;;;;;;;2.20;0.98;;;;;;;;;;5473599;26;19998;-86
2024/04/17 11:14:49;;;;;;;1.52;0.93;;;;;;;;;;5478921;26;19995;-85
2024/04/17 11:17:15;;;;;;;1.90;0.90;;;;;;;;;;5479384;26;20030;-85
2024/04/17 11:19:41;;;;;;;2.60;0.80;;;;;;;;;;5482801;26;20002;-85
2024/04/17 11:22:10;;;;;;;1.85;1.00;;;;;;;;;;5476518;26;19999;-86
2024/04/17 11:24:36;;;;;;;2.30;0.90;;;;;;;;;;5476689;26;20023;-86
2024/04/17 11:27:10;;;;;;;0.90;0.70;;;;;;;;;;5491272;26;20006;-85
2024/04/17 11:29:43;;;;;;;1.45;0.80;;;;;;;;;;5487770;26;20005;-86
2024/04/17 11:32:09;;;;;;;1.53;0.70;;;;;;;;;;5486562;26;20010;-86
2024/04/17 11:34:35;;;;;;;1.50;0.80;;;;;;;;;;5464253;26;20009;-85
2024/04/17 11:37:07;;;;;;;1.00;0.80;;;;;;;;;;5446056;26;20334;-86
2024/04/17 11:39:34;;;;;;;0.73;0.70;;;;;;;;;;5449106;26;19994;-86
2024/04/17 11:42:04;;;;;;;1.60;0.95;;;;;;;;;;5471004;26;20014;-86
2024/04/17 11:44:43;;;;;;;1.20;0.77;;;;;;;;;;5455676;26;20472;-88
2024/04/17 11:47:10;;;;;;;1.63;1.30;;;;;;;;;;5487094;26;20091;-87
2024/04/17 11:49:36;;;;;;;1.98;1.00;;;;;;;;;;5488951;26;20026;-87
2024/04/17 11:52:03;;;;;;;1.38;0.95;;;;;;;;;;5488988;26;20345;-87
2024/04/17 11:54:28;;;;;;;1.65;1.10;;;;;;;;;;5477812;26;20002;-86
2024/04/17 11:56:54;;;;;;;1.88;1.20;;;;;;;;;;5483728;26;19998;-85
2024/04/17 11:59:20;;;;;;;1.58;1.25;;;;;;;;;;5482120;26;20005;-86
2024/04/17 12:01:45;;;;;;;4.00;1.52;;;;;;;;;;5488787;26;20335;-87
2024/04/17 12:04:11;;;;;;;2.65;1.60;;;;;;;;;;5488085;26;20074;-88
2024/04/17 12:06:36;;;;;;;2.20;1.30;;;;;;;;;;5487496;26;19995;-88
2024/04/17 12:09:01;;;;;;;1.55;1.23;;;;;;;;;;5488333;26;20473;-87
2024/04/17 12:11:27;;;;;;;1.65;1.00;;;;;;;;;;5485974;26;20074;-87
2024/04/17 12:13:52;;;;;;;1.88;1.17;;;;;;;;;;5481091;26;19998;-88
2024/04/17 12:16:18;;;;;;;2.00;1.00;;;;;;;;;;5471740;26;20021;-87
2024/04/17 12:18:43;;;;;;;1.85;0.95;;;;;;;;;;5489293;26;20009;-88
2024/04/17 12:21:08;;;;;;;1.83;0.90;;;;;;;;;;5488049;26;20013;-86
2024/04/17 12:23:35;;;;;;;3.42;0.90;;;;;;;;;;5483043;26;20009;-87
2024/04/17 12:28:46;;;;;;;3.92;0.90;;;;;;;;;;5490415;26;20013;-87
2024/04/17 12:31:11;;;;;;;1.42;0.80;;;;;;;;;;5487947;26;19994;-87
2024/04/17 12:33:37;;;;;;;1.13;0.90;;;;;;;;;;5488907;26;19998;-88
2024/04/17 12:36:08;;;;;;;1.83;0.80;;;;;;;;;;5483724;26;20385;-86
2024/04/17 12:38:34;;;;;;;1.75;0.93;;;;;;;;;;5488037;26;19998;-87
2024/04/17 12:40:59;;;;;;;1.42;0.80;;;;;;;;;;5487711;26;20457;-88
2024/04/17 12:43:25;;;;;;;1.75;0.77;;;;;;;;;;5485504;26;20009;-89
2024/04/17 12:45:50;;;;;;;1.98;0.80;;;;;;;;;;5485425;26;20348;-84
2024/04/17 12:48:17;;;;;;;1.30;0.70;;;;;;;;;;5482126;26;19994;-84
2024/04/17 12:50:46;;;;;;;1.80;0.90;;;;;;;;;;5478933;26;19998;-83
2024/04/17 12:53:15;;;;;;;1.85;1.20;;;;;;;;;;5479005;26;20010;-84
2024/04/17 12:55:41;;;;;;;2.08;0.95;;;;;;;;;;5483422;26;20329;-84
2024/04/17 12:58:06;;;;;;;2.60;0.90;;;;;;;;;;5475693;26;20017;-84
2024/04/17 13:00:31;;;;;;;2.88;0.80;;;;;;;;;;5480053;26;19990;-84
2024/04/17 13:03:00;;;;;;;1.27;0.90;;;;;;;;;;5483516;26;20006;-87
2024/04/17 13:05:25;;;;;;;4.07;1.05;;;;;;;;;;5486238;26;20014;-88
2024/04/17 13:07:51;;;;;;;2.70;1.00;;;;;;;;;;5485346;26;20020;-88
2024/04/17 13:10:16;;;;;;;1.75;0.90;;;;;;;;;;5487794;26;19998;-81
2024/04/17 13:12:54;;;;;;;2.55;1.15;;;;;;;;;;5481889;26;20037;-84
2024/04/17 13:15:21;;;;;;;1.48;1.00;;;;;;;;;;5490868;26;20002;-84
2024/04/17 13:17:59;;;;;;;1.92;1.10;;;;;;;;;;5486799;26;20009;-83
2024/04/17 13:20:31;;;;;;;2.92;1.33;;;;;;;;;;5488400;26;20091;-84
2024/04/17 13:22:57;;;;;;;3.77;1.60;;;;;;;;;;5488082;26;20002;-84
2024/04/17 13:25:23;;;;;;;2.65;1.67;;;;;;;;;;5485642;26;20034;-84
2024/04/17 13:27:50;;;;;;;3.20;1.80;;;;;;;;;;5474806;26;20455;-84
2024/04/17 13:30:15;;;;;;;4.03;1.52;;;;;;;;;;5487642;26;20069;-84
2024/04/17 13:32:41;;;;;;;3.08;1.48;;;;;;;;;;5488181;26;20013;-83
2024/04/17 13:35:06;;;;;;;6.35;1.75;;;;;;;;;;5487024;26;19998;-84
2024/04/17 13:37:45;;;;;;;2.63;1.80;;;;;;;;;;5483618;26;20103;-83
2024/04/17 13:40:15;;;;;;;2.65;1.80;;;;;;;;;;5479825;26;20044;-84
2024/04/17 13:42:40;;;;;;;3.03;1.30;;;;;;;;;;5471865;26;20010;-84
2024/04/17 13:45:07;;;;;;;2.67;1.63;;;;;;;;;;5484268;26;19998;-84
2024/04/17 13:47:35;;;;;;;2.17;1.50;;;;;;;;;;5481832;26;20411;-87
2024/04/17 13:50:01;;;;;;;5.93;2.03;;;;;;;;;;5476521;26;20010;-87
2024/04/17 13:52:29;;;;;;;3.38;2.10;;;;;;;;;;5477691;26;20410;-87
2024/04/17 13:55:00;;;;;;;3.15;2.00;;;;;;;;;;5479742;26;20009;-88
2024/04/17 13:57:25;;;;;;;4.18;2.10;;;;;;;;;;5479233;26;20014;-87
2024/04/17 13:59:52;;;;;;;2.20;1.70;;;;;;;;;;5474369;26;19999;-87
2024/04/17 14:02:20;;;;;;;2.30;1.80;;;;;;;;;;5475513;26;20792;-87
2024/04/17 14:04:45;;;;;;;5.22;1.85;;;;;;;;;;5484428;26;19998;-88
2024/04/17 14:07:11;;;;;;;2.63;1.85;;;;;;;;;;5477074;26;20014;-88
2024/04/17 14:09:36;;;;;;;2.80;1.60;;;;;;;;;;5477048;26;20022;-88
2024/04/17 14:12:02;;;;;;;2.05;1.42;;;;;;;;;;5463640;26;20499;-88
2024/04/17 14:14:30;;;;;;;2.70;1.30;;;;;;;;;;5471179;26;20002;-85
2024/04/17 14:16:56;;;;;;;2.25;1.50;;;;;;;;;;5475594;26;20013;-84
2024/04/17 14:19:22;;;;;;;3.15;1.42;;;;;;;;;;5479512;26;20020;-84
2024/04/17 14:21:52;;;;;;;3.25;1.40;;;;;;;;;;5473538;26;19994;-85
2024/04/17 14:24:18;;;;;;;3.47;1.50;;;;;;;;;;5475641;26;20334;-83
2024/04/17 14:26:45;;;;;;;2.00;1.20;;;;;;;;;;5474928;26;20010;-84
2024/04/17 14:29:11;;;;;;;3.03;1.33;;;;;;;;;;5473923;26;20002;-84
2024/04/17 14:31:37;;;;;;;2.13;1.50;;;;;;;;;;5470857;26;20074;-84
2024/04/17 14:34:02;;;;;;;3.15;1.40;;;;;;;;;;5480330;26;21604;-83
2024/04/17 14:36:28;;;;;;;2.17;1.20;;;;;;;;;;5474041;26;19999;-83
2024/04/17 14:38:53;;;;;;;1.75;1.20;;;;;;;;;;5476332;26;20010;-83
2024/04/17 14:41:19;;;;;;;1.60;1.20;;;;;;;;;;5475389;26;20055;-84